Time;durP1;ratioP1;P1;durP2;ratioP2;P2;SDS_P1;SDS_P2;PMS_P1;PMS_P2;Temp;Humidity;BMP_temperature;BMP_pressure;BME280_temperature;BME280_humidity;BME280_pressure;Samples;Min_cycle;Max_cycle;Signal;HPM_P1;HPM_P2
2021/01/03 00:01:04;;;;;;;13.70;5.30;;;1.70;99.90;;;2.30;100.00;97615.19;5002509;28;20887;-80
2021/01/03 00:03:35;;;;;;;10.93;5.10;;;1.80;99.90;;;2.33;100.00;97612.31;5012647;28;20498;-80
2021/01/03 00:06:08;;;;;;;7.77;4.97;;;1.80;99.90;;;2.31;100.00;97614.25;5007087;28;20470;-80
2021/01/03 00:08:42;;;;;;;7.67;4.90;;;1.70;99.90;;;2.30;100.00;97610.88;5004487;28;20474;-80
2021/01/03 00:11:14;;;;;;;10.73;4.77;;;1.70;99.90;;;2.31;100.00;97609.91;5003574;28;20478;-80
2021/01/03 00:13:45;;;;;;;7.50;4.67;;;1.70;99.90;;;2.31;100.00;97604.75;5003014;28;20522;-81
2021/01/03 00:16:16;;;;;;;8.80;4.50;;;1.70;99.90;;;2.28;100.00;97599.88;5002156;28;20535;-80
2021/01/03 00:18:47;;;;;;;7.30;3.57;;;1.70;99.90;;;2.26;100.00;97608.72;5001748;28;20477;-80
2021/01/03 00:21:19;;;;;;;7.17;4.00;;;1.70;99.90;;;2.14;100.00;97608.13;5001819;28;20462;-80
2021/01/03 00:23:50;;;;;;;8.00;4.80;;;1.50;99.90;;;2.09;100.00;97600.00;5001550;28;20463;-80
2021/01/03 00:26:21;;;;;;;7.37;4.70;;;1.50;99.90;;;2.09;100.00;97612.88;5002570;28;21039;-80
2021/01/03 00:28:52;;;;;;;6.90;4.23;;;1.50;99.90;;;2.05;100.00;97603.81;5002750;28;20826;-80
2021/01/03 00:31:26;;;;;;;7.13;4.10;;;1.50;99.90;;;2.07;100.00;97601.94;5002226;28;20448;-80
2021/01/03 00:33:56;;;;;;;8.47;4.77;;;1.50;99.90;;;2.08;100.00;97603.56;5001870;28;20483;-80
2021/01/03 00:36:27;;;;;;;8.57;4.57;;;1.50;99.90;;;2.06;100.00;97604.63;5001223;28;20476;-80
2021/01/03 00:38:58;;;;;;;11.40;4.13;;;1.50;99.90;;;2.03;100.00;97603.16;5001868;28;20529;-80
2021/01/03 00:41:29;;;;;;;5.70;3.67;;;1.50;99.90;;;1.97;100.00;97606.31;5001472;28;20550;-80
2021/01/03 00:43:59;;;;;;;5.40;3.50;;;1.50;99.90;;;1.93;100.00;97595.50;5002207;28;20455;-80
2021/01/03 00:46:29;;;;;;;7.50;3.60;;;1.30;99.90;;;1.87;100.00;97600.41;5001356;28;20455;-80
2021/01/03 00:48:59;;;;;;;9.00;4.07;;;1.20;99.90;;;1.92;100.00;97603.34;5002126;28;20533;-80
2021/01/03 00:51:30;;;;;;;7.47;3.80;;;1.40;99.90;;;1.93;100.00;97602.41;5001387;28;20462;-80
2021/01/03 00:54:01;;;;;;;6.40;4.00;;;1.40;99.90;;;1.87;100.00;97601.22;5001831;28;20461;-80
2021/01/03 00:56:30;;;;;;;7.43;3.77;;;1.30;99.90;;;1.90;100.00;97594.97;5000804;28;20447;-80
2021/01/03 00:59:00;;;;;;;7.23;4.20;;;1.30;99.90;;;1.91;100.00;97601.72;5002353;28;20788;-80
2021/01/03 01:01:30;;;;;;;5.83;3.47;;;1.30;99.90;;;1.79;100.00;97595.16;5001973;28;20472;-80
2021/01/03 01:03:59;;;;;;;9.00;3.80;;;1.10;99.90;;;1.82;100.00;97597.44;5001048;28;20514;-80
2021/01/03 01:06:29;;;;;;;4.00;3.33;;;1.20;99.90;;;1.82;100.00;97597.44;5000293;28;20490;-80
2021/01/03 01:08:59;;;;;;;8.07;3.10;;;1.20;99.90;;;1.81;100.00;97591.47;5000934;28;20451;-80
2021/01/03 01:11:30;;;;;;;7.80;4.23;;;1.20;99.90;;;1.88;100.00;97607.16;5001000;28;20463;-80
2021/01/03 01:13:59;;;;;;;4.80;3.50;;;1.20;99.90;;;1.85;100.00;97603.13;5001562;28;20970;-80
2021/01/03 01:16:27;;;;;;;4.90;3.30;;;1.20;99.90;;;1.88;100.00;97596.84;5001185;28;20927;-80
2021/01/03 01:18:55;;;;;;;7.13;4.00;;;1.20;99.90;;;1.90;100.00;97594.97;5001396;28;20458;-80
2021/01/03 01:21:23;;;;;;;6.10;3.33;;;1.40;99.90;;;1.85;100.00;97599.72;5000391;28;20467;-80
2021/01/03 01:23:50;;;;;;;4.53;3.43;;;1.30;99.90;;;1.87;100.00;97601.22;5001006;28;20498;-80
2021/01/03 01:26:19;;;;;;;6.37;4.27;;;1.30;99.90;;;1.85;100.00;97602.31;5001161;28;20462;-80
2021/01/03 01:28:46;;;;;;;6.03;3.10;;;1.30;99.90;;;1.86;100.00;97604.75;5001187;28;20448;-80
2021/01/03 01:31:14;;;;;;;8.43;4.23;;;1.30;99.90;;;1.86;100.00;97594.44;5000446;28;20960;-80
2021/01/03 01:33:42;;;;;;;5.73;3.80;;;1.30;99.90;;;1.84;100.00;97590.41;5000556;28;20561;-80
2021/01/03 01:36:10;;;;;;;5.47;3.60;;;1.30;99.90;;;1.87;100.00;97603.00;5000511;28;20448;-80
2021/01/03 01:38:38;;;;;;;7.23;3.90;;;1.30;99.90;;;1.84;100.00;97595.56;5000770;28;20455;-80
2021/01/03 01:41:06;;;;;;;7.50;4.00;;;1.30;99.90;;;1.87;100.00;97597.84;4999791;28;20514;-80
2021/01/03 01:43:34;;;;;;;5.00;3.93;;;1.30;99.90;;;1.85;100.00;97599.72;5000740;28;20508;-80
2021/01/03 01:46:04;;;;;;;5.90;4.17;;;1.30;99.90;;;1.83;100.00;97596.50;5000750;28;20444;-80
2021/01/03 01:48:37;;;;;;;6.20;3.60;;;1.30;99.90;;;1.84;100.00;97596.34;5000672;28;20474;-80
2021/01/03 01:51:18;;;;;;;8.33;4.23;;;1.30;99.90;;;1.90;100.00;97610.44;5000596;28;20461;-80
2021/01/03 01:53:57;;;;;;;6.80;3.70;;;1.30;99.90;;;1.90;100.00;97592.41;5000582;28;20691;-80
2021/01/03 01:56:38;;;;;;;6.70;3.77;;;1.30;99.90;;;1.87;100.00;97597.84;5000543;28;20458;-80
2021/01/03 01:59:19;;;;;;;5.30;4.10;;;1.30;99.90;;;1.92;100.00;97598.19;5000139;28;20455;-80
2021/01/03 02:01:58;;;;;;;9.07;4.40;;;1.40;99.90;;;1.88;100.00;97594.28;5001323;28;20513;-80
2021/01/03 02:04:33;;;;;;;6.30;4.10;;;1.40;99.90;;;1.88;100.00;97599.44;5000456;28;20454;-80
2021/01/03 02:07:11;;;;;;;6.07;4.13;;;1.30;99.90;;;1.91;100.00;97596.56;5000376;28;20471;-80
2021/01/03 02:10:04;;;;;;;6.87;4.80;;;1.40;99.90;;;1.98;100.00;97600.19;5000152;28;20466;-80
2021/01/03 02:12:38;;;;;;;10.70;4.20;;;1.40;99.90;;;2.00;100.00;97590.56;5000080;28;20451;-80
2021/01/03 02:15:16;;;;;;;5.57;3.60;;;1.50;99.90;;;1.97;100.00;97596.84;4999575;28;20474;-80
2021/01/03 02:17:45;;;;;;;7.80;3.93;;;1.40;99.90;;;2.03;100.00;97588.50;4999056;28;21014;-80
2021/01/03 02:20:16;;;;;;;7.30;3.93;;;1.50;99.90;;;2.05;100.00;97593.50;5000410;28;20867;-80
2021/01/03 02:22:50;;;;;;;5.37;3.90;;;1.50;99.90;;;2.06;100.00;97589.97;4999601;28;20506;-80
2021/01/03 02:25:21;;;;;;;6.20;3.93;;;1.50;99.90;;;2.05;100.00;97583.19;5000207;28;20443;-80
2021/01/03 02:28:10;;;;;;;8.50;5.07;;;1.50;99.90;;;2.10;100.00;97585.34;4999645;28;20444;-80
2021/01/03 02:30:41;;;;;;;7.37;4.33;;;1.50;99.90;;;2.10;100.00;97586.16;4999638;28;20952;-80
2021/01/03 02:33:19;;;;;;;10.07;4.23;;;1.50;99.90;;;2.07;100.00;97586.44;4999490;28;20483;-80
2021/01/03 02:35:53;;;;;;;9.70;4.40;;;1.50;99.90;;;2.09;100.00;97570.81;4999968;28;20940;-80
2021/01/03 02:38:29;;;;;;;6.40;3.80;;;1.50;99.90;;;2.09;100.00;97569.06;4998866;28;20456;-80
2021/01/03 02:40:58;;;;;;;10.20;4.13;;;1.50;99.90;;;2.10;100.00;97580.19;4999781;28;20915;-80
2021/01/03 02:43:25;;;;;;;8.60;4.70;;;1.50;99.90;;;2.12;100.00;97573.91;4999208;28;20510;-80
2021/01/03 02:45:55;;;;;;;5.60;3.77;;;1.50;99.90;;;2.15;100.00;97578.81;5000126;28;20467;-80
2021/01/03 02:48:25;;;;;;;4.97;3.90;;;1.60;99.90;;;2.13;100.00;97580.72;4999546;28;20474;-80
2021/01/03 02:50:53;;;;;;;7.33;4.37;;;1.50;99.90;;;2.14;100.00;97574.59;4998860;28;20515;-80
2021/01/03 02:53:21;;;;;;;6.70;3.60;;;1.60;99.90;;;2.14;100.00;97577.19;4999122;28;20503;-81
2021/01/03 02:55:48;;;;;;;6.13;3.73;;;1.60;99.90;;;2.14;100.00;97578.94;4999143;28;20931;-80
2021/01/03 02:58:17;;;;;;;8.00;4.73;;;1.70;99.90;;;2.16;100.00;97580.41;4999247;28;20463;-80
2021/01/03 03:00:44;;;;;;;5.57;4.20;;;1.60;99.90;;;2.16;100.00;97575.25;4998928;28;21313;-80
2021/01/03 03:03:12;;;;;;;5.47;3.67;;;1.50;99.90;;;2.16;100.00;97577.84;4999703;28;20998;-80
2021/01/03 03:05:39;;;;;;;7.47;4.10;;;1.50;99.90;;;2.12;100.00;97578.28;4999570;28;20451;-80
2021/01/03 03:08:07;;;;;;;7.93;4.43;;;1.50;99.90;;;2.14;100.00;97577.19;4998707;28;20579;-80
2021/01/03 03:10:35;;;;;;;9.10;4.47;;;1.50;99.90;;;2.17;100.00;97579.47;4998923;28;20474;-80
2021/01/03 03:13:03;;;;;;;7.63;4.27;;;1.50;99.90;;;2.17;100.00;97574.31;4998778;28;20474;-80
2021/01/03 03:15:32;;;;;;;6.30;3.83;;;1.60;99.90;;;2.22;100.00;97572.09;4998605;28;21015;-79
2021/01/03 03:18:01;;;;;;;6.67;4.50;;;1.60;99.90;;;2.26;100.00;97570.84;4999599;28;20577;-80
2021/01/03 03:20:29;;;;;;;7.67;4.10;;;1.60;99.90;;;2.23;100.00;97573.72;4999184;28;20447;-80
2021/01/03 03:22:57;;;;;;;5.33;3.53;;;1.70;99.90;;;2.21;100.00;97567.91;4998954;28;20506;-80
2021/01/03 03:25:24;;;;;;;7.27;4.50;;;1.60;99.90;;;2.25;100.00;97574.41;4998156;28;20545;-79
2021/01/03 03:27:52;;;;;;;9.60;4.53;;;1.60;99.90;;;2.28;100.00;97570.72;4998790;28;20869;-80
2021/01/03 03:30:22;;;;;;;7.37;3.87;;;1.70;99.90;;;2.29;100.00;97567.19;4998728;28;20452;-80
2021/01/03 03:32:53;;;;;;;5.37;3.77;;;1.70;99.90;;;2.23;100.00;97571.13;4999185;28;20495;-80
2021/01/03 03:35:26;;;;;;;8.67;4.40;;;1.60;99.90;;;2.25;100.00;97569.25;4998680;28;20491;-80
2021/01/03 03:37:55;;;;;;;6.20;3.90;;;1.60;99.90;;;2.27;100.00;97569.88;4998843;28;20936;-80
2021/01/03 03:40:23;;;;;;;5.93;3.30;;;1.60;99.90;;;2.31;100.00;97575.56;4998992;28;20456;-81
2021/01/03 03:42:51;;;;;;;6.83;4.20;;;1.70;99.90;;;2.32;100.00;97567.69;4998819;28;20483;-80
2021/01/03 03:45:20;;;;;;;5.40;3.77;;;1.70;99.90;;;2.26;100.00;97572.59;4999418;28;20443;-80
2021/01/03 03:47:48;;;;;;;5.63;3.87;;;1.60;99.90;;;2.25;100.00;97578.75;4998625;28;20447;-80
2021/01/03 03:50:21;;;;;;;6.47;4.30;;;1.60;99.90;;;2.27;100.00;97572.47;4998914;28;20506;-80
2021/01/03 03:52:49;;;;;;;5.80;3.77;;;1.70;99.90;;;2.25;100.00;97573.59;4998394;28;20452;-80
2021/01/03 03:55:17;;;;;;;6.80;4.83;;;1.60;99.90;;;2.28;100.00;97563.78;4998639;28;20455;-80
2021/01/03 03:57:45;;;;;;;5.97;4.00;;;1.70;99.90;;;2.27;100.00;97566.50;4998607;28;20505;-80
2021/01/03 04:00:17;;;;;;;5.50;4.20;;;1.70;99.90;;;2.29;100.00;97559.44;4998911;28;20452;-80
2021/01/03 04:02:46;;;;;;;5.27;3.97;;;1.70;99.90;;;2.29;100.00;97565.38;4998609;28;20495;-80
2021/01/03 04:05:19;;;;;;;6.60;3.70;;;1.60;99.90;;;2.21;100.00;97556.78;4998503;28;21001;-80
2021/01/03 04:07:47;;;;;;;7.20;4.00;;;1.60;99.90;;;2.25;100.00;97564.09;4997919;28;20451;-80
2021/01/03 04:10:19;;;;;;;5.90;4.00;;;1.60;99.90;;;2.28;100.00;97563.78;4998824;28;20444;-80
2021/01/03 04:12:46;;;;;;;6.27;3.90;;;1.60;99.90;;;2.23;100.00;97558.25;4998187;28;20524;-80
2021/01/03 04:15:18;;;;;;;4.83;3.27;;;1.60;99.90;;;2.25;100.00;97558.91;4999106;28;20511;-80
2021/01/03 04:17:46;;;;;;;6.73;3.90;;;1.60;99.90;;;2.24;100.00;97557.28;4997944;28;20943;-80
2021/01/03 04:20:18;;;;;;;7.53;3.37;;;1.60;99.90;;;2.20;100.00;97558.53;4996346;28;20442;-83
2021/01/03 04:22:46;;;;;;;30.70;13.27;;;1.60;99.90;;;2.27;100.00;97559.56;5000307;28;20834;-81
2021/01/03 04:25:16;;;;;;;8.03;4.60;;;1.70;99.90;;;2.29;100.00;97556.88;4998244;28;20936;-80
2021/01/03 04:27:44;;;;;;;4.23;3.30;;;1.70;99.90;;;2.30;100.00;97558.47;4992900;28;20459;-80
2021/01/03 04:30:15;;;;;;;6.07;3.67;;;1.70;99.90;;;2.30;100.00;97554.13;4996185;28;20956;-80
2021/01/03 04:32:43;;;;;;;3.73;3.03;;;1.70;99.90;;;2.30;100.00;97551.53;4999999;28;20495;-80
2021/01/03 04:35:12;;;;;;;5.00;3.33;;;1.70;99.90;;;2.26;100.00;97560.53;4997515;28;20466;-81
2021/01/03 04:37:42;;;;;;;14.87;6.70;;;1.70;99.90;;;2.26;100.00;97570.03;4997707;28;20451;-88
2021/01/03 04:40:17;;;;;;;5.77;3.57;;;1.60;99.90;;;2.25;100.00;97558.09;4999173;28;20463;-82
2021/01/03 04:42:45;;;;;;;4.93;3.10;;;1.60;99.90;;;2.29;100.00;97562.03;5002129;28;20502;-82
2021/01/03 04:45:27;;;;;;;3.60;3.00;;;1.60;99.90;;;2.28;100.00;97561.19;5001021;28;20468;-82
2021/01/03 04:47:59;;;;;;;4.60;3.63;;;1.60;99.90;;;2.30;100.00;97561.03;5001155;28;20451;-83
2021/01/03 04:51:05;;;;;;;6.57;4.10;;;1.60;99.90;;;2.28;100.00;97558.63;4999577;28;20486;-82
2021/01/03 04:53:44;;;;;;;3.93;3.03;;;1.60;99.90;;;2.32;100.00;97564.31;5001566;28;20466;-83
2021/01/03 04:56:24;;;;;;;4.07;3.33;;;1.60;99.90;;;2.32;100.00;97565.13;5001262;28;20453;-83
2021/01/03 04:59:07;;;;;;;4.87;3.30;;;1.60;99.90;;;2.28;100.00;97566.38;5000664;28;20463;-82
2021/01/03 05:02:27;;;;;;;5.50;3.93;;;1.60;99.90;;;2.32;100.00;97567.69;5001156;28;20459;-82
2021/01/03 05:05:17;;;;;;;5.30;3.30;;;1.70;99.90;;;2.34;100.00;97568.34;5001664;28;20831;-82
2021/01/03 05:07:58;;;;;;;3.67;3.30;;;1.70;99.90;;;2.29;100.00;97565.38;5001097;28;20462;-82
2021/01/03 05:10:28;;;;;;;5.73;3.23;;;1.70;99.90;;;2.33;100.00;97565.91;5003631;28;20447;-82
2021/01/03 05:13:22;;;;;;;5.77;3.70;;;1.70;99.90;;;2.31;100.00;97562.66;5003054;28;20464;-82
2021/01/03 05:15:50;;;;;;;4.97;3.33;;;1.70;99.90;;;2.25;100.00;97558.91;5000590;28;20462;-82
2021/01/03 05:18:17;;;;;;;4.73;3.17;;;1.60;99.90;;;2.26;100.00;97570.84;5003183;28;20490;-82
2021/01/03 05:20:54;;;;;;;6.20;3.50;;;1.60;99.90;;;2.27;100.00;97563.91;5001039;28;20537;-82
2021/01/03 05:23:25;;;;;;;5.07;3.50;;;1.70;99.90;;;2.27;100.00;97569.88;4999815;28;20974;-82
2021/01/03 05:25:56;;;;;;;5.07;2.87;;;1.70;99.90;;;2.23;100.00;97567.75;5000459;28;20541;-82
2021/01/03 05:28:26;;;;;;;4.43;3.27;;;1.70;99.90;;;2.18;100.00;97573.34;4999893;28;20513;-82
2021/01/03 05:31:08;;;;;;;3.40;3.10;;;1.80;99.90;;;2.18;100.00;97568.19;5000813;28;20448;-82
2021/01/03 05:33:36;;;;;;;5.40;3.77;;;1.60;99.90;;;2.17;100.00;97566.56;4999934;28;20492;-82
2021/01/03 05:36:25;;;;;;;6.20;3.80;;;1.60;99.90;;;2.23;100.00;97568.56;4999181;28;20479;-80
2021/01/03 05:38:53;;;;;;;6.23;3.93;;;1.70;99.90;;;2.18;100.00;97563.03;4998425;28;20463;-82
2021/01/03 05:41:53;;;;;;;4.60;3.30;;;1.60;99.90;;;2.21;100.00;97562.75;4994908;28;20467;-82
2021/01/03 05:44:26;;;;;;;5.33;3.70;;;1.60;99.90;;;2.21;100.00;97567.91;4999699;28;20570;-82
2021/01/03 05:47:15;;;;;;;4.53;3.47;;;1.70;99.90;;;2.19;100.00;97564.66;4998282;28;20467;-82
2021/01/03 05:49:43;;;;;;;4.10;2.90;;;1.70;99.90;;;2.20;100.00;97571.44;4987850;28;20558;-82
2021/01/03 05:52:23;;;;;;;3.90;3.30;;;1.60;99.90;;;2.19;100.00;97571.56;4998621;28;20470;-82
2021/01/03 05:54:54;;;;;;;6.03;3.53;;;1.60;99.90;;;2.22;100.00;97569.50;4996752;28;20478;-82
2021/01/03 05:57:30;;;;;;;4.90;3.03;;;1.60;99.90;;;2.19;100.00;97571.56;4996493;28;20510;-82
2021/01/03 05:59:58;;;;;;;4.67;3.53;;;1.60;99.90;;;2.14;100.00;97572.03;4999626;28;20526;-82
2021/01/03 06:02:30;;;;;;;6.77;3.63;;;1.60;99.90;;;2.10;100.00;97570.69;4999688;28;20467;-82
2021/01/03 06:05:08;;;;;;;4.23;3.13;;;1.50;99.90;;;2.15;100.00;97570.25;4982385;28;20469;-82
2021/01/03 06:07:37;;;;;;;3.40;2.70;;;1.60;99.90;;;2.16;100.00;97569.28;4998809;28;20463;-82
2021/01/03 06:10:29;;;;;;;3.60;3.13;;;1.60;99.90;;;2.17;100.00;97571.72;4998638;28;20472;-82
2021/01/03 06:13:23;;;;;;;5.77;3.70;;;1.70;99.90;;;2.20;100.00;97571.44;4999471;28;20475;-83
2021/01/03 06:16:02;;;;;;;4.97;3.30;;;1.60;99.90;;;2.17;100.00;97568.34;4973442;28;20554;-82
2021/01/03 06:18:42;;;;;;;3.77;3.30;;;1.60;99.90;;;2.21;100.00;97580.81;4998161;28;21060;-82
2021/01/03 06:21:24;;;;;;;4.50;3.00;;;1.70;99.90;;;2.19;100.00;97569.81;4984522;28;20462;-82
2021/01/03 06:24:14;;;;;;;7.23;3.40;;;1.70;99.90;;;2.19;100.00;97574.16;4999924;28;20510;-82
2021/01/03 06:26:48;;;;;;;4.50;3.20;;;1.60;99.90;;;2.18;100.00;97578.50;4998073;28;20467;-82
2021/01/03 06:29:31;;;;;;;8.27;4.33;;;1.60;99.90;;;2.17;100.00;97576.88;4996965;28;20711;-82
2021/01/03 06:32:55;;;;;;;6.27;3.30;;;1.70;99.90;;;2.10;100.00;97568.09;4995706;28;20845;-82
2021/01/03 06:35:31;;;;;;;8.13;4.03;;;1.60;99.90;;;2.13;100.00;97575.56;4913840;28;21046;-81
2021/01/03 06:38:12;;;;;;;6.13;4.10;;;1.50;99.90;;;2.16;100.00;97569.28;4996781;28;20508;-81
2021/01/03 06:40:48;;;;;;;5.60;3.83;;;1.50;99.90;;;2.20;100.00;97561.13;4996934;28;20480;-81
2021/01/03 06:43:45;;;;;;;3.80;3.20;;;1.60;99.90;;;2.21;100.00;97562.75;4999211;28;20895;-82
2021/01/03 06:47:04;;;;;;;4.77;3.63;;;1.60;99.90;;;2.20;100.00;97566.28;4999071;28;20902;-81
2021/01/03 06:50:11;;;;;;;5.77;3.73;;;1.60;99.90;;;2.21;100.00;97565.31;4963294;28;20480;-82
2021/01/03 06:53:30;;;;;;;5.10;3.70;;;1.60;99.90;;;2.20;100.00;97565.47;4974225;28;20472;-81
2021/01/03 06:57:01;;;;;;;5.13;3.30;;;1.60;99.90;;;2.12;100.00;97567.97;4995140;28;20481;-80
2021/01/03 07:00:21;;;;;;;5.20;3.63;;;1.50;99.90;;;2.17;100.00;97564.00;4999032;28;20463;-80
2021/01/03 07:02:56;;;;;;;7.50;3.30;;;1.60;99.90;;;2.17;100.00;97560.59;4982993;28;20517;-81
2021/01/03 07:05:23;;;;;;;4.10;3.43;;;1.50;99.90;;;2.20;100.00;97561.13;4998127;28;20480;-81
2021/01/03 07:08:02;;;;;;;5.83;3.50;;;1.70;99.90;;;2.20;100.00;97560.31;4996038;28;20472;-81
2021/01/03 07:10:40;;;;;;;3.77;3.40;;;1.50;99.90;;;2.21;100.00;97555.00;4995077;28;20455;-81
2021/01/03 07:13:41;;;;;;;6.40;3.50;;;1.60;99.90;;;2.11;100.00;97556.84;4996220;28;20570;-81
2021/01/03 07:16:54;;;;;;;7.03;4.30;;;1.50;99.90;;;2.10;100.00;97554.41;4923966;29;20849;-83
2021/01/03 07:19:49;;;;;;;8.30;3.80;;;1.50;99.90;;;2.08;100.00;97553.75;4997178;28;20466;-81
2021/01/03 07:22:24;;;;;;;4.97;3.63;;;1.50;99.90;;;2.03;100.00;97549.03;4996446;28;20493;-80
2021/01/03 07:25:27;;;;;;;5.17;3.27;;;1.50;99.90;;;2.01;100.00;97553.53;4995442;28;20478;-80
2021/01/03 07:28:11;;;;;;;6.07;3.27;;;1.50;99.90;;;2.01;100.00;97550.94;4990918;28;20736;-80
2021/01/03 07:30:59;;;;;;;8.80;4.03;;;1.50;99.90;;;1.92;100.00;97552.63;4997928;28;20947;-79
2021/01/03 07:33:40;;;;;;;4.90;3.83;;;1.30;99.90;;;2.02;100.00;97553.38;4995292;28;20484;-79
2021/01/03 07:36:27;;;;;;;6.20;4.10;;;1.40;99.90;;;1.93;100.00;97558.59;4997308;28;20469;-80
2021/01/03 07:39:20;;;;;;;4.77;3.70;;;1.20;99.90;;;2.01;100.00;97563.84;4997321;28;20483;-81
2021/01/03 07:42:10;;;;;;;4.27;3.17;;;1.30;99.90;;;1.97;100.00;97554.78;4996179;28;21076;-80
2021/01/03 07:44:37;;;;;;;6.30;2.97;;;1.40;99.90;;;2.02;100.00;97561.09;4996150;28;20503;-80
2021/01/03 07:47:07;;;;;;;21.73;8.50;;;1.50;99.90;;;2.02;100.00;97555.94;4997706;28;20475;-80
2021/01/03 07:49:45;;;;;;;5.57;3.90;;;1.50;99.90;;;2.06;100.00;97563.38;4989663;28;20486;-80
2021/01/03 07:52:40;;;;;;;4.97;3.27;;;1.60;99.90;;;2.06;100.00;97558.22;4995808;28;20462;-80
2021/01/03 07:55:30;;;;;;;6.50;4.13;;;1.60;99.90;;;2.02;100.00;97565.44;4995794;28;20471;-80
2021/01/03 07:58:02;;;;;;;4.43;3.10;;;1.40;99.90;;;2.02;100.00;97563.69;4994705;28;20468;-81
2021/01/03 08:00:36;;;;;;;5.40;4.20;;;1.50;99.90;;;2.02;100.00;97570.59;4997765;28;20456;-81
2021/01/03 08:03:07;;;;;;;4.27;3.17;;;1.50;99.90;;;2.01;100.00;97571.56;4994755;28;20505;-82
2021/01/03 08:05:37;;;;;;;4.63;3.50;;;1.50;99.90;;;2.06;100.00;97558.22;4995391;28;20478;-82
2021/01/03 08:08:15;;;;;;;4.00;3.30;;;1.50;99.90;;;2.08;100.00;97558.91;4996391;28;20460;-81
2021/01/03 08:10:45;;;;;;;6.53;3.67;;;1.50;99.90;;;2.07;100.00;97565.81;4997171;28;20500;-81
2021/01/03 08:13:19;;;;;;;78.37;30.60;;;1.50;99.90;;;2.07;100.00;97565.81;4998839;28;20986;-81
2021/01/03 08:15:47;;;;;;;16.23;8.00;;;1.60;99.90;;;2.09;100.00;97563.09;4995797;28;20466;-82
2021/01/03 08:18:18;;;;;;;6.87;4.07;;;1.60;99.90;;;2.06;100.00;97564.19;5000578;28;20506;-81
2021/01/03 08:20:49;;;;;;;6.47;4.57;;;1.50;99.90;;;2.11;100.00;97567.16;5001385;28;20458;-81
2021/01/03 08:23:26;;;;;;;3.83;2.93;;;1.60;99.90;;;2.09;100.00;97566.47;5002449;28;20493;-81
2021/01/03 08:26:08;;;;;;;6.73;3.67;;;1.50;99.90;;;2.13;100.00;97570.41;5001581;28;20993;-81
2021/01/03 08:28:39;;;;;;;5.17;3.53;;;1.50;99.90;;;2.06;100.00;97571.94;5002093;28;20454;-81
2021/01/03 08:31:07;;;;;;;5.40;3.47;;;1.50;99.90;;;2.08;100.00;97567.47;5001489;28;20470;-81
2021/01/03 08:33:41;;;;;;;5.13;3.80;;;1.50;99.90;;;2.11;100.00;97571.50;5001173;28;20486;-81
2021/01/03 08:36:19;;;;;;;7.50;4.10;;;1.50;99.90;;;2.12;100.00;97568.75;5000223;28;20866;-81
2021/01/03 08:38:48;;;;;;;4.23;3.50;;;1.50;99.90;;;2.14;100.00;97576.38;5000090;28;20459;-81
2021/01/03 08:41:23;;;;;;;6.17;3.70;;;1.60;99.90;;;2.08;100.00;97574.38;5000726;28;20542;-81
2021/01/03 08:43:50;;;;;;;7.33;3.90;;;1.40;99.90;;;2.07;100.00;97565.81;5002035;28;20900;-81
2021/01/03 08:46:27;;;;;;;4.77;3.70;;;1.50;99.90;;;2.09;100.00;97574.22;5001763;28;20455;-81
2021/01/03 08:49:03;;;;;;;7.83;4.63;;;1.50;99.90;;;2.13;100.00;97575.56;5001062;28;21009;-81
2021/01/03 08:51:30;;;;;;;7.40;4.07;;;1.50;99.90;;;2.17;100.00;97576.88;5001610;28;20470;-81
2021/01/03 08:54:03;;;;;;;5.07;3.67;;;1.50;99.90;;;2.18;100.00;97577.69;5000619;28;20451;-81
2021/01/03 08:56:47;;;;;;;5.53;3.67;;;1.60;99.90;;;2.11;100.00;97582.63;5001321;28;20458;-82
2021/01/03 08:59:18;;;;;;;6.10;3.97;;;1.50;99.90;;;2.16;100.00;97584.75;5001731;28;21037;-81
2021/01/03 09:01:46;;;;;;;6.80;4.20;;;1.60;99.90;;;2.17;100.00;97584.63;5001524;28;20956;-82
2021/01/03 09:04:20;;;;;;;5.80;3.60;;;1.60;99.90;;;2.23;100.00;97591.78;5001248;28;20494;-81
2021/01/03 09:06:53;;;;;;;5.20;3.93;;;1.80;99.90;;;2.19;100.00;97585.28;5001185;28;20448;-82
2021/01/03 09:09:26;;;;;;;4.80;3.70;;;1.70;99.90;;;2.21;100.00;97588.53;5001000;28;20467;-81
2021/01/03 09:11:57;;;;;;;6.37;3.80;;;1.70;99.90;;;2.25;100.00;97587.28;5000735;28;20478;-81
2021/01/03 09:14:36;;;;;;;4.80;3.67;;;1.70;99.90;;;2.25;100.00;97583.91;5001454;28;20701;-81
2021/01/03 09:17:13;;;;;;;5.80;3.70;;;1.70;99.90;;;2.24;100.00;97593.41;5001446;28;20463;-81
2021/01/03 09:19:56;;;;;;;5.50;3.83;;;1.70;99.90;;;2.25;100.00;97595.03;4989564;28;20454;-81
2021/01/03 09:22:30;;;;;;;5.80;3.90;;;1.70;99.90;;;2.23;100.00;97596.94;5000696;28;20979;-81
2021/01/03 09:25:04;;;;;;;6.23;4.20;;;1.80;99.90;;;2.16;100.00;97590.72;5000967;28;21015;-81
2021/01/03 09:27:37;;;;;;;6.53;4.13;;;1.60;99.90;;;2.10;100.00;97599.06;4990040;28;20929;-83
2021/01/03 09:30:23;;;;;;;6.00;3.83;;;1.50;99.90;;;2.17;100.00;97602.69;5000985;28;20494;-82
2021/01/03 09:33:05;;;;;;;5.33;4.30;;;1.50;99.90;;;2.15;100.00;97604.59;5000784;28;20855;-81
2021/01/03 09:36:05;;;;;;;6.50;3.30;;;1.50;99.90;;;2.19;100.00;97599.94;5000950;28;20966;-81
2021/01/03 09:39:15;;;;;;;4.57;3.23;;;1.50;99.90;;;2.25;100.00;97605.34;4997426;28;20572;-82
2021/01/03 09:42:11;;;;;;;4.80;4.20;;;1.70;99.90;;;2.27;100.00;97603.41;4991676;28;20839;-82
2021/01/03 09:44:51;;;;;;;4.70;3.90;;;1.70;99.90;;;2.28;100.00;97611.97;5000582;28;20499;-82
2021/01/03 09:47:19;;;;;;;4.80;3.63;;;1.70;99.90;;;2.31;100.00;97619.41;4984932;28;20444;-82
2021/01/03 09:49:50;;;;;;;6.80;4.50;;;1.70;99.90;;;2.30;100.00;97616.03;5000581;28;20582;-83
2021/01/03 09:52:34;;;;;;;4.90;4.00;;;1.80;99.90;;;2.32;100.00;97615.88;5000492;28;20525;-83
2021/01/03 09:55:12;;;;;;;7.37;4.47;;;1.70;99.90;;;2.26;100.00;97617.25;5000974;28;20459;-82
2021/01/03 09:58:00;;;;;;;4.83;3.90;;;1.60;99.90;;;2.28;100.00;97619.72;4982988;28;21000;-83
2021/01/03 10:00:55;;;;;;;7.40;4.37;;;1.80;99.90;;;2.29;100.00;97622.13;5000835;28;20463;-82
2021/01/03 10:03:37;;;;;;;4.43;3.53;;;1.70;99.90;;;2.32;100.00;97618.47;4989457;28;20495;-82
2021/01/03 10:06:17;;;;;;;6.30;3.90;;;1.80;99.90;;;2.34;100.00;97619.13;5000191;28;20535;-82
2021/01/03 10:08:46;;;;;;;7.83;4.33;;;1.80;99.90;;;2.37;100.00;97623.97;4999899;28;20471;-82
2021/01/03 10:11:31;;;;;;;7.50;4.47;;;1.70;99.90;;;2.41;100.00;97620.16;5001462;28;21097;-83
2021/01/03 10:14:03;;;;;;;6.07;3.97;;;1.70;99.90;;;2.29;100.00;97626.50;4999386;28;20467;-83
2021/01/03 10:16:35;;;;;;;5.30;3.90;;;1.70;99.90;;;2.36;100.00;97620.59;4989742;28;20858;-83
2021/01/03 10:19:19;;;;;;;6.97;4.00;;;1.70;99.90;;;2.42;100.00;97626.94;5001138;28;20790;-83
2021/01/03 10:21:49;;;;;;;8.20;4.10;;;1.70;99.90;;;2.44;100.00;97625.84;4983201;28;20455;-82
2021/01/03 10:24:23;;;;;;;8.37;4.10;;;1.80;99.90;;;2.45;100.00;97621.50;5000059;28;20875;-83
2021/01/03 10:27:15;;;;;;;5.43;3.70;;;1.80;99.90;;;2.45;100.00;97626.66;4999677;28;20462;-82
2021/01/03 10:29:44;;;;;;;7.93;4.33;;;1.80;99.90;;;2.42;100.00;97622.59;5000223;28;20455;-83
2021/01/03 10:32:12;;;;;;;5.60;3.77;;;1.80;99.90;;;2.46;100.00;97623.91;5000070;28;20491;-83
2021/01/03 10:34:39;;;;;;;8.90;4.40;;;1.90;99.90;;;2.45;100.00;97622.31;4999919;28;20455;-83
2021/01/03 10:37:07;;;;;;;4.93;3.60;;;1.80;99.90;;;2.44;100.00;97618.09;4999989;28;20448;-83
2021/01/03 10:39:35;;;;;;;6.00;4.07;;;1.80;99.90;;;2.39;100.00;97625.47;5000032;28;20454;-81
2021/01/03 10:42:07;;;;;;;5.60;4.53;;;1.80;99.90;;;2.38;100.00;97629.00;4999524;28;20455;-81
2021/01/03 10:44:34;;;;;;;5.10;3.80;;;1.80;99.90;;;2.41;100.00;97625.31;4999917;28;20499;-81
2021/01/03 10:47:03;;;;;;;5.50;3.73;;;1.80;99.90;;;2.39;100.00;97622.91;4999445;28;20816;-81
2021/01/03 10:49:31;;;;;;;9.23;4.47;;;1.80;99.90;;;2.40;100.00;97624.50;4999416;28;20552;-81
2021/01/03 10:51:59;;;;;;;10.53;4.90;;;1.90;99.90;;;2.38;100.00;97621.28;4999368;28;20467;-80
2021/01/03 10:54:28;;;;;;;8.40;5.13;;;1.90;99.90;;;2.41;100.00;97620.97;4998899;28;20508;-79
2021/01/03 10:57:07;;;;;;;8.40;5.03;;;1.90;99.90;;;2.38;100.00;97618.69;4999711;28;20537;-80
2021/01/03 10:59:35;;;;;;;9.83;4.90;;;1.80;99.90;;;2.44;100.00;97620.69;4998947;28;20444;-81
2021/01/03 11:02:04;;;;;;;7.77;4.90;;;1.80;99.90;;;2.42;100.00;97619.22;5000016;28;20460;-81